Terminal Aerodrome Forecast
Issued by NWS Louisville, KY

Home | Current Version | Previous Version | Text Only | Print | Product List | Glossary On
Versions: 1 2 3 4 5 6 7 8 9 10 11 12
000
FTUS43 KLMK 130500
TAFSDF
TAF
KSDF 130526Z 1306/1412 35004KT P6SM OVC021
     FM130800 34007KT P6SM VCSH OVC015
     FM131500 35010KT P6SM BKN025
     FM131900 36008KT P6SM SCT035
     FM140100 03005KT P6SM SKC=

USA.gov is the U.S. government's official web portal to all federal, state and local government web resources and services.